createdAt,value
2022-07-31T00:00:41.396Z,17.02
2022-07-31T00:01:41.394Z,17.12
2022-07-31T00:02:41.387Z,17.15
2022-07-31T00:03:41.427Z,17.08
2022-07-31T00:04:41.381Z,17.15
2022-07-31T00:05:41.933Z,17.15
2022-07-31T00:06:41.377Z,17.06
2022-07-31T00:07:41.374Z,17.02
2022-07-31T00:08:41.369Z,17.05
2022-07-31T00:09:53.332Z,17.04
2022-07-31T00:10:41.362Z,17.08
2022-07-31T00:11:41.362Z,17.01
2022-07-31T00:12:41.358Z,16.91
2022-07-31T00:13:57.527Z,16.96
2022-07-31T00:14:41.355Z,16.90
2022-07-31T00:15:41.349Z,16.84
2022-07-31T00:16:41.346Z,16.86
2022-07-31T00:17:41.346Z,16.78
2022-07-31T00:18:41.341Z,16.76
2022-07-31T00:19:41.340Z,16.76
2022-07-31T00:20:41.335Z,16.75
2022-07-31T00:21:41.332Z,16.75
2022-07-31T00:22:41.330Z,16.71
2022-07-31T00:23:41.326Z,16.75
2022-07-31T00:24:41.322Z,16.66
2022-07-31T00:25:41.321Z,16.66
2022-07-31T00:26:41.317Z,16.64
2022-07-31T00:27:41.316Z,16.58
2022-07-31T00:28:41.311Z,16.60
2022-07-31T00:29:41.305Z,16.65
2022-07-31T00:30:41.306Z,16.54
2022-07-31T00:31:41.303Z,16.51
2022-07-31T00:32:41.300Z,16.50
2022-07-31T00:33:41.296Z,16.49
2022-07-31T00:34:41.293Z,16.50
2022-07-31T00:35:41.291Z,16.46
2022-07-31T00:36:41.287Z,16.51
2022-07-31T00:37:41.465Z,16.47
2022-07-31T00:38:41.282Z,16.56
2022-07-31T00:39:41.279Z,16.50
2022-07-31T00:40:41.274Z,16.50
2022-07-31T00:41:41.272Z,16.50
2022-07-31T00:42:41.270Z,16.43
2022-07-31T00:43:41.268Z,16.32
2022-07-31T00:44:41.263Z,16.35
2022-07-31T00:45:41.261Z,16.32
2022-07-31T00:46:41.259Z,16.33
2022-07-31T00:47:41.254Z,16.31
2022-07-31T00:48:41.251Z,16.32
2022-07-31T00:49:41.249Z,16.32
2022-07-31T00:50:41.248Z,16.38
2022-07-31T00:51:41.242Z,16.42
2022-07-31T00:52:41.241Z,16.41
2022-07-31T00:53:41.237Z,16.47
2022-07-31T00:54:41.233Z,16.42
2022-07-31T00:55:51.479Z,16.38
2022-07-31T00:56:41.225Z,16.42
2022-07-31T00:57:41.223Z,16.39
2022-07-31T00:58:41.219Z,16.29
2022-07-31T00:59:41.218Z,16.29
2022-07-31T01:00:41.234Z,16.21
2022-07-31T01:01:41.300Z,16.20
2022-07-31T01:02:46.618Z,16.24
2022-07-31T01:03:41.203Z,16.16
2022-07-31T01:04:41.635Z,16.13
2022-07-31T01:05:41.196Z,16.15
2022-07-31T01:06:42.742Z,16.12
2022-07-31T01:07:41.190Z,16.05
2022-07-31T01:08:41.188Z,16.05
2022-07-31T01:09:41.182Z,16.02
2022-07-31T01:10:41.179Z,16.08
2022-07-31T01:11:41.176Z,16.04
2022-07-31T01:12:41.171Z,16.04
2022-07-31T01:13:41.169Z,16.04
2022-07-31T01:14:41.164Z,15.95
2022-07-31T01:15:41.163Z,16.01
2022-07-31T01:16:41.167Z,16.04
2022-07-31T01:17:41.157Z,16.00
2022-07-31T01:18:41.153Z,16.01
2022-07-31T01:19:42.812Z,16.02
2022-07-31T01:20:41.146Z,15.94
2022-07-31T01:21:41.143Z,15.90
2022-07-31T01:22:41.139Z,15.97
2022-07-31T01:23:41.135Z,15.86
2022-07-31T01:24:41.134Z,15.84
2022-07-31T01:25:41.129Z,15.94
2022-07-31T01:26:41.125Z,15.92
2022-07-31T01:27:49.215Z,15.95
2022-07-31T01:28:41.118Z,15.98
2022-07-31T01:29:41.116Z,15.83
2022-07-31T01:30:41.112Z,15.79
2022-07-31T01:31:41.114Z,15.84
2022-07-31T01:32:41.105Z,15.83
2022-07-31T01:33:41.103Z,15.86
2022-07-31T01:34:41.099Z,15.84
2022-07-31T01:35:41.095Z,15.91
2022-07-31T01:36:41.090Z,15.94
2022-07-31T01:37:41.088Z,15.83
2022-07-31T01:38:45.271Z,15.97
2022-07-31T01:39:41.080Z,15.94
2022-07-31T01:40:41.078Z,15.82
2022-07-31T01:41:41.071Z,15.75
2022-07-31T01:42:41.071Z,15.76
2022-07-31T01:43:41.066Z,15.75
2022-07-31T01:44:41.061Z,15.79
2022-07-31T01:45:41.060Z,15.75
2022-07-31T01:46:41.470Z,15.73
2022-07-31T01:47:41.050Z,15.67
2022-07-31T01:48:41.045Z,15.62
2022-07-31T01:49:41.043Z,15.64
2022-07-31T01:50:43.069Z,15.62
2022-07-31T01:51:41.036Z,15.58
2022-07-31T01:52:41.030Z,15.59
2022-07-31T01:53:41.031Z,15.51
2022-07-31T01:54:41.024Z,15.59
2022-07-31T01:55:56.447Z,15.52
2022-07-31T01:56:41.019Z,15.49
2022-07-31T01:57:41.019Z,15.55
2022-07-31T01:58:41.009Z,15.44
2022-07-31T01:59:44.787Z,15.52
2022-07-31T02:00:41.130Z,15.49
2022-07-31T02:01:41.081Z,15.51
2022-07-31T02:02:42.383Z,15.44
2022-07-31T02:03:44.245Z,15.49
2022-07-31T02:04:40.988Z,15.35
2022-07-31T02:05:40.984Z,15.43
2022-07-31T02:06:40.981Z,15.43
2022-07-31T02:07:40.978Z,15.43
2022-07-31T02:08:40.970Z,15.29
2022-07-31T02:09:52.298Z,15.28
2022-07-31T02:10:40.962Z,15.27
2022-07-31T02:11:53.790Z,15.28
2022-07-31T02:12:40.959Z,15.33
2022-07-31T02:13:40.955Z,15.28
2022-07-31T02:14:40.949Z,15.29
2022-07-31T02:15:40.946Z,15.28
2022-07-31T02:16:40.940Z,15.25
2022-07-31T02:17:40.939Z,15.27
2022-07-31T02:18:40.935Z,15.29
2022-07-31T02:19:40.931Z,15.28
2022-07-31T02:20:40.925Z,15.17
2022-07-31T02:21:40.924Z,15.24
2022-07-31T02:22:40.919Z,15.21
2022-07-31T02:23:40.916Z,15.15
2022-07-31T02:24:40.913Z,15.15
2022-07-31T02:25:40.908Z,15.17
2022-07-31T02:26:40.906Z,15.15
2022-07-31T02:27:57.158Z,15.15
2022-07-31T02:28:40.898Z,15.07
2022-07-31T02:29:40.892Z,15.07
2022-07-31T02:30:40.889Z,15.06
2022-07-31T02:31:40.885Z,15.09
2022-07-31T02:32:40.881Z,15.15
2022-07-31T02:33:40.968Z,15.04
2022-07-31T02:34:40.873Z,15.07
2022-07-31T02:35:44.043Z,14.92
2022-07-31T02:36:40.865Z,14.97
2022-07-31T02:37:40.861Z,14.96
2022-07-31T02:38:40.857Z,14.88
2022-07-31T02:39:40.853Z,14.88
2022-07-31T02:40:41.229Z,14.92
2022-07-31T02:41:40.846Z,14.82
2022-07-31T02:42:40.842Z,14.86
2022-07-31T02:43:40.837Z,14.88
2022-07-31T02:44:40.833Z,14.89
2022-07-31T02:45:40.826Z,14.85
2022-07-31T02:46:40.826Z,14.97
2022-07-31T02:47:40.821Z,14.86
2022-07-31T02:48:40.817Z,14.94
2022-07-31T02:49:40.816Z,14.86
2022-07-31T02:50:40.809Z,14.85
2022-07-31T02:51:43.570Z,14.89
2022-07-31T02:52:40.805Z,14.84
2022-07-31T02:53:40.798Z,14.92
2022-07-31T02:54:40.795Z,14.84
2022-07-31T02:55:40.795Z,14.77
2022-07-31T02:56:40.786Z,14.85
2022-07-31T02:57:40.782Z,14.84
2022-07-31T02:58:40.778Z,14.78
2022-07-31T02:59:40.776Z,14.73
2022-07-31T03:00:40.803Z,14.72
2022-07-31T03:01:40.838Z,14.73
2022-07-31T03:02:40.762Z,14.73
2022-07-31T03:03:40.758Z,14.73
2022-07-31T03:04:40.754Z,14.77
2022-07-31T03:05:40.752Z,14.79
2022-07-31T03:06:40.746Z,14.78
2022-07-31T03:07:40.744Z,14.78
2022-07-31T03:08:40.746Z,14.77
2022-07-31T03:09:40.731Z,14.55
2022-07-31T03:10:40.728Z,14.63
2022-07-31T03:11:40.789Z,14.59
2022-07-31T03:12:40.719Z,14.65
2022-07-31T03:13:40.719Z,14.54
2022-07-31T03:14:40.716Z,14.62
2022-07-31T03:15:40.707Z,14.63
2022-07-31T03:16:40.701Z,14.58
2022-07-31T03:17:41.254Z,14.58
2022-07-31T03:18:40.696Z,14.55
2022-07-31T03:19:40.691Z,14.59
2022-07-31T03:20:40.686Z,14.77
2022-07-31T03:21:40.700Z,14.69
2022-07-31T03:22:40.678Z,14.70
2022-07-31T03:23:40.677Z,14.50
2022-07-31T03:24:40.668Z,14.63
2022-07-31T03:25:40.666Z,14.59
2022-07-31T03:26:40.659Z,14.51
2022-07-31T03:27:40.660Z,14.58
2022-07-31T03:28:40.656Z,14.53
2022-07-31T03:29:43.457Z,14.53
2022-07-31T03:30:40.644Z,14.45
2022-07-31T03:31:40.640Z,14.47
2022-07-31T03:32:40.634Z,14.47
2022-07-31T03:33:40.631Z,14.44
2022-07-31T03:34:40.627Z,14.43
2022-07-31T03:35:44.622Z,14.45
2022-07-31T03:36:40.618Z,14.51
2022-07-31T03:37:40.614Z,14.53
2022-07-31T03:38:43.340Z,14.58
2022-07-31T03:39:40.603Z,14.54
2022-07-31T03:40:40.603Z,14.47
2022-07-31T03:41:40.597Z,14.53
2022-07-31T03:42:40.589Z,14.58
2022-07-31T03:43:44.409Z,14.54
2022-07-31T03:44:40.582Z,14.53
2022-07-31T03:45:40.576Z,14.58
2022-07-31T03:46:40.571Z,14.62
2022-07-31T03:47:40.569Z,14.58
2022-07-31T03:48:40.563Z,14.62
2022-07-31T03:49:40.559Z,14.58
2022-07-31T03:50:40.557Z,14.69
2022-07-31T03:51:40.554Z,14.73
2022-07-31T03:52:40.549Z,14.70
2022-07-31T03:53:40.546Z,14.68
2022-07-31T03:54:40.537Z,14.72
2022-07-31T03:55:40.540Z,14.78
2022-07-31T03:56:40.527Z,14.84
2022-07-31T03:57:40.524Z,14.81
2022-07-31T03:58:40.521Z,14.82
2022-07-31T03:59:48.422Z,14.84
2022-07-31T04:00:40.513Z,14.77
2022-07-31T04:01:56.766Z,14.85
2022-07-31T04:02:40.552Z,14.86
2022-07-31T04:03:40.497Z,14.88
2022-07-31T04:04:40.493Z,15.00
2022-07-31T04:05:40.489Z,14.86
2022-07-31T04:06:40.486Z,15.00
2022-07-31T04:07:40.479Z,15.07
2022-07-31T04:08:40.475Z,15.02
2022-07-31T04:09:40.472Z,15.03
2022-07-31T04:10:40.471Z,15.15
2022-07-31T04:11:40.463Z,15.06
2022-07-31T04:12:40.458Z,15.11
2022-07-31T04:13:40.452Z,15.31
2022-07-31T04:14:40.449Z,15.17
2022-07-31T04:15:40.445Z,15.27
2022-07-31T04:16:40.441Z,15.29
2022-07-31T04:17:40.437Z,15.42
2022-07-31T04:18:40.432Z,15.40
2022-07-31T04:19:40.427Z,15.47
2022-07-31T04:20:40.422Z,15.51
2022-07-31T04:21:40.421Z,15.58
2022-07-31T04:22:40.415Z,15.58
2022-07-31T04:23:40.409Z,15.62
2022-07-31T04:24:40.405Z,15.67
2022-07-31T04:25:40.401Z,15.61
2022-07-31T04:26:40.398Z,15.64
2022-07-31T04:27:47.893Z,15.77
2022-07-31T04:28:40.394Z,15.76
2022-07-31T04:29:40.387Z,15.82
2022-07-31T04:30:40.383Z,15.88
2022-07-31T04:31:40.377Z,15.94
2022-07-31T04:32:40.373Z,16.02
2022-07-31T04:33:46.516Z,16.13
2022-07-31T04:34:40.366Z,16.20
2022-07-31T04:35:40.363Z,16.39
2022-07-31T04:36:40.357Z,16.61
2022-07-31T04:37:40.355Z,17.01
2022-07-31T04:38:40.352Z,17.39
2022-07-31T04:39:40.348Z,17.89
2022-07-31T04:40:40.341Z,18.52
2022-07-31T04:41:40.339Z,18.88
2022-07-31T04:42:40.337Z,19.47
2022-07-31T04:43:40.333Z,19.67
2022-07-31T04:44:40.329Z,20.00
2022-07-31T04:45:40.325Z,20.18
2022-07-31T04:46:40.322Z,20.16
2022-07-31T04:47:40.319Z,20.34
2022-07-31T04:48:41.328Z,20.58
2022-07-31T04:49:40.315Z,20.81
2022-07-31T04:50:40.310Z,21.09
2022-07-31T04:51:40.308Z,21.17
2022-07-31T04:52:40.304Z,21.25
2022-07-31T04:53:40.300Z,21.39
2022-07-31T04:54:40.299Z,21.48
2022-07-31T04:55:40.300Z,21.57
2022-07-31T04:56:40.290Z,22.10
2022-07-31T04:57:40.289Z,22.28
2022-07-31T04:58:40.287Z,22.63
2022-07-31T04:59:59.830Z,22.57
2022-07-31T05:00:40.283Z,22.94
2022-07-31T05:01:40.338Z,23.21
2022-07-31T05:02:40.277Z,23.56
2022-07-31T05:03:40.275Z,23.78
2022-07-31T05:04:40.272Z,24.06
2022-07-31T05:05:40.273Z,24.32
2022-07-31T05:06:40.268Z,24.58
2022-07-31T05:07:40.267Z,24.95
2022-07-31T05:08:40.265Z,25.25
2022-07-31T05:09:40.264Z,25.47
2022-07-31T05:10:40.261Z,25.65
2022-07-31T05:11:40.260Z,25.70
2022-07-31T05:12:40.257Z,25.99
2022-07-31T05:13:40.257Z,26.15
2022-07-31T05:14:40.256Z,26.23
2022-07-31T05:15:40.257Z,26.36
2022-07-31T05:16:40.253Z,26.38
2022-07-31T05:17:40.251Z,26.55
2022-07-31T05:18:40.250Z,26.73
2022-07-31T05:19:40.251Z,26.85
2022-07-31T05:20:40.248Z,26.96
2022-07-31T05:21:53.144Z,27.15
2022-07-31T05:22:40.247Z,27.36
2022-07-31T05:23:40.248Z,27.47
2022-07-31T05:24:40.246Z,27.67
2022-07-31T05:25:40.245Z,27.78
2022-07-31T05:26:40.246Z,27.98
2022-07-31T05:27:41.339Z,28.14
2022-07-31T05:28:40.243Z,28.33
2022-07-31T05:29:40.243Z,28.48
2022-07-31T05:30:40.245Z,28.59
2022-07-31T05:31:40.245Z,28.72
2022-07-31T05:32:40.246Z,28.66
2022-07-31T05:33:40.242Z,28.86
2022-07-31T05:34:40.245Z,28.72
2022-07-31T05:35:40.258Z,28.76
2022-07-31T05:36:40.243Z,28.75
2022-07-31T05:37:40.245Z,28.70
2022-07-31T05:38:40.246Z,28.63
2022-07-31T05:39:40.243Z,28.57
2022-07-31T05:40:40.244Z,28.51
2022-07-31T05:41:40.245Z,28.38
2022-07-31T05:42:40.246Z,28.41
2022-07-31T05:43:40.248Z,28.29
2022-07-31T05:44:40.249Z,28.44
2022-07-31T05:45:40.246Z,28.51
2022-07-31T05:46:40.249Z,28.45
2022-07-31T05:47:41.153Z,28.66
2022-07-31T05:48:40.247Z,28.64
2022-07-31T05:49:40.252Z,28.74
2022-07-31T05:50:40.248Z,28.70
2022-07-31T05:51:40.250Z,28.64
2022-07-31T05:52:40.248Z,28.74
2022-07-31T05:53:40.249Z,28.63
2022-07-31T05:54:40.251Z,28.62
2022-07-31T05:55:40.252Z,28.66
2022-07-31T05:56:40.252Z,28.74
2022-07-31T05:57:40.251Z,28.93
2022-07-31T05:58:40.252Z,28.88
2022-07-31T05:59:40.253Z,28.94
2022-07-31T06:00:40.255Z,29.02
2022-07-31T06:01:40.313Z,29.08
2022-07-31T06:02:40.258Z,29.23
2022-07-31T06:03:52.131Z,29.10
2022-07-31T06:04:40.256Z,29.29
2022-07-31T06:05:40.259Z,29.38
2022-07-31T06:06:40.259Z,29.54
2022-07-31T06:07:40.260Z,29.51
2022-07-31T06:08:40.262Z,29.56
2022-07-31T06:09:40.271Z,29.69
2022-07-31T06:10:40.275Z,29.72
2022-07-31T06:11:40.267Z,29.68
2022-07-31T06:12:40.267Z,29.86
2022-07-31T06:13:40.267Z,29.93
2022-07-31T06:14:40.272Z,29.95
2022-07-31T06:15:40.271Z,29.90
2022-07-31T06:16:40.271Z,29.97
2022-07-31T06:17:44.508Z,30.13
2022-07-31T06:18:40.276Z,30.27
2022-07-31T06:19:40.280Z,30.34
2022-07-31T06:20:40.282Z,30.65
2022-07-31T06:21:40.282Z,30.50
2022-07-31T06:22:40.280Z,30.51
2022-07-31T06:23:40.289Z,30.51
2022-07-31T06:24:42.562Z,30.66
2022-07-31T06:25:40.297Z,30.72
2022-07-31T06:26:40.290Z,30.85
2022-07-31T06:27:40.292Z,30.96
2022-07-31T06:28:48.161Z,31.02
2022-07-31T06:29:41.655Z,30.99
2022-07-31T06:30:40.301Z,30.92
2022-07-31T06:31:40.305Z,30.90
2022-07-31T06:32:40.304Z,30.65
2022-07-31T06:33:40.306Z,30.54
2022-07-31T06:34:40.309Z,30.46
2022-07-31T06:35:40.313Z,30.57
2022-07-31T06:36:40.316Z,30.59
2022-07-31T06:37:40.316Z,30.61
2022-07-31T06:38:40.320Z,30.63
2022-07-31T06:39:55.659Z,30.92
2022-07-31T06:40:40.325Z,31.10
2022-07-31T06:41:40.327Z,31.39
2022-07-31T06:42:40.333Z,31.52
2022-07-31T06:43:40.335Z,31.56
2022-07-31T06:44:40.479Z,31.46
2022-07-31T06:45:51.079Z,31.52
2022-07-31T06:46:48.609Z,31.34
2022-07-31T06:47:40.346Z,31.33
2022-07-31T06:48:40.348Z,31.43
2022-07-31T06:49:40.410Z,31.40
2022-07-31T06:50:40.355Z,31.62
2022-07-31T06:51:40.357Z,31.59
2022-07-31T06:52:40.365Z,31.78
2022-07-31T06:53:40.363Z,32.01
2022-07-31T06:54:40.369Z,31.92
2022-07-31T06:55:44.544Z,31.92
2022-07-31T06:56:40.377Z,31.96
2022-07-31T06:57:40.378Z,32.08
2022-07-31T06:58:40.381Z,32.26
2022-07-31T06:59:40.878Z,32.46
2022-07-31T07:00:40.389Z,32.59
2022-07-31T07:01:40.569Z,32.77
2022-07-31T07:02:40.398Z,32.80
2022-07-31T07:03:40.399Z,33.01
2022-07-31T07:05:01.530Z,33.20
2022-07-31T07:05:45.019Z,33.40
2022-07-31T07:06:40.412Z,33.67
2022-07-31T07:07:40.418Z,33.81
2022-07-31T07:08:40.419Z,33.80
2022-07-31T07:09:40.425Z,33.98
2022-07-31T07:10:40.429Z,33.80
2022-07-31T07:11:40.434Z,33.94
2022-07-31T07:12:40.439Z,33.83
2022-07-31T07:13:45.732Z,33.98
2022-07-31T07:14:40.448Z,33.83
2022-07-31T07:15:40.455Z,33.57
2022-07-31T07:16:40.454Z,33.28
2022-07-31T07:17:40.460Z,33.07
2022-07-31T07:18:40.467Z,33.09
2022-07-31T07:19:40.471Z,33.30
2022-07-31T07:20:40.475Z,33.49
2022-07-31T07:21:40.476Z,33.55
2022-07-31T07:22:40.482Z,33.86
2022-07-31T07:23:40.487Z,33.99
2022-07-31T07:24:40.493Z,34.25
2022-07-31T07:25:40.497Z,34.33
2022-07-31T07:26:40.502Z,34.32
2022-07-31T07:27:40.505Z,34.39
2022-07-31T07:28:40.510Z,34.29
2022-07-31T07:29:40.516Z,34.55
2022-07-31T07:30:40.520Z,34.70
2022-07-31T07:31:40.528Z,34.75
2022-07-31T07:32:40.531Z,34.93
2022-07-31T07:33:42.763Z,35.02
2022-07-31T07:34:40.543Z,35.05
2022-07-31T07:35:40.546Z,35.19
2022-07-31T07:36:40.552Z,35.39
2022-07-31T07:37:40.558Z,35.70
2022-07-31T07:38:40.563Z,35.85
2022-07-31T07:39:40.568Z,35.93
2022-07-31T07:40:40.574Z,35.92
2022-07-31T07:41:40.579Z,36.00
2022-07-31T07:42:40.585Z,35.80
2022-07-31T07:43:40.592Z,35.85
2022-07-31T07:44:40.596Z,36.05
2022-07-31T07:45:40.603Z,35.95
2022-07-31T07:46:40.609Z,35.95
2022-07-31T07:48:05.198Z,35.90
2022-07-31T07:48:40.622Z,36.00
2022-07-31T07:49:40.627Z,36.18
2022-07-31T07:50:40.636Z,36.51
2022-07-31T07:51:59.118Z,36.81
2022-07-31T07:52:43.856Z,36.89
2022-07-31T07:53:40.663Z,37.03
2022-07-31T07:54:40.676Z,36.80
2022-07-31T07:55:40.670Z,36.28
2022-07-31T07:56:40.671Z,36.14
2022-07-31T07:57:40.679Z,35.53
2022-07-31T07:58:40.686Z,35.11
2022-07-31T07:59:40.697Z,34.97
2022-07-31T08:00:40.847Z,34.89
2022-07-31T08:01:40.777Z,34.61
2022-07-31T08:02:40.714Z,34.38
2022-07-31T08:03:48.460Z,34.05
2022-07-31T08:04:43.587Z,33.59
2022-07-31T08:05:40.733Z,33.42
2022-07-31T08:06:40.740Z,32.71
2022-07-31T08:07:42.147Z,32.45
2022-07-31T08:08:40.751Z,32.41
2022-07-31T08:09:40.758Z,32.56
2022-07-31T08:10:40.765Z,32.83
2022-07-31T08:11:40.770Z,33.07
2022-07-31T08:12:40.776Z,33.77
2022-07-31T08:13:41.011Z,34.24
2022-07-31T08:14:40.788Z,34.71
2022-07-31T08:15:40.796Z,35.27
2022-07-31T08:16:40.801Z,35.23
2022-07-31T08:17:40.806Z,35.29
2022-07-31T08:18:40.812Z,35.45
2022-07-31T08:19:40.819Z,35.52
2022-07-31T08:20:40.824Z,35.73
2022-07-31T08:21:40.828Z,35.79
2022-07-31T08:22:40.836Z,35.98
2022-07-31T08:23:40.841Z,35.83
2022-07-31T08:24:40.850Z,34.95
2022-07-31T08:25:40.851Z,34.55
2022-07-31T08:26:40.858Z,34.32
2022-07-31T08:27:40.863Z,33.67
2022-07-31T08:28:41.465Z,32.78
2022-07-31T08:29:40.872Z,32.31
2022-07-31T08:30:40.878Z,31.46
2022-07-31T08:31:40.882Z,30.83
2022-07-31T08:32:40.885Z,30.15
2022-07-31T08:33:40.891Z,29.66
2022-07-31T08:34:42.261Z,29.50
2022-07-31T08:35:40.901Z,28.96
2022-07-31T08:36:40.903Z,28.44
2022-07-31T08:38:01.602Z,28.19
2022-07-31T08:38:40.911Z,27.86
2022-07-31T08:39:40.916Z,27.85
2022-07-31T08:40:43.272Z,27.80
2022-07-31T08:41:40.919Z,27.85
2022-07-31T08:42:40.927Z,27.85
2022-07-31T08:44:02.285Z,27.86
2022-07-31T08:44:40.931Z,27.75
2022-07-31T08:45:40.934Z,27.78
2022-07-31T08:46:40.976Z,27.82
2022-07-31T08:47:40.939Z,27.78
2022-07-31T08:48:40.944Z,27.85
2022-07-31T08:49:41.013Z,27.86
2022-07-31T08:50:40.950Z,27.74
2022-07-31T08:51:52.532Z,27.73
2022-07-31T08:52:40.955Z,27.74
2022-07-31T08:53:40.958Z,27.78
2022-07-31T08:54:40.961Z,27.75
2022-07-31T08:55:56.200Z,27.70
2022-07-31T08:56:40.965Z,27.65
2022-07-31T08:57:40.971Z,27.67
2022-07-31T08:58:40.974Z,27.85
2022-07-31T08:59:40.976Z,28.20
2022-07-31T09:00:41.002Z,28.54
2022-07-31T09:01:41.076Z,28.86
2022-07-31T09:02:40.989Z,29.16
2022-07-31T09:03:40.993Z,29.56
2022-07-31T09:04:40.996Z,30.13
2022-07-31T09:05:41.959Z,30.69
2022-07-31T09:06:41.006Z,30.97
2022-07-31T09:07:41.005Z,30.97
2022-07-31T09:08:41.008Z,31.07
2022-07-31T09:09:51.113Z,30.80
2022-07-31T09:10:41.822Z,30.16
2022-07-31T09:11:41.019Z,29.71
2022-07-31T09:12:41.021Z,29.08
2022-07-31T09:13:41.024Z,28.60
2022-07-31T09:14:41.027Z,28.20
2022-07-31T09:15:41.032Z,28.02
2022-07-31T09:16:41.031Z,27.68
2022-07-31T09:17:41.036Z,27.42
2022-07-31T09:18:41.037Z,27.07
2022-07-31T09:19:52.080Z,27.00
2022-07-31T09:20:41.041Z,26.84
2022-07-31T09:21:41.046Z,26.63
2022-07-31T09:22:41.047Z,26.43
2022-07-31T09:23:41.048Z,26.40
2022-07-31T09:24:41.052Z,26.38
2022-07-31T09:25:41.054Z,26.36
2022-07-31T09:26:41.085Z,26.31
2022-07-31T09:27:41.061Z,26.34
2022-07-31T09:28:41.063Z,26.26
2022-07-31T09:29:41.064Z,26.26
2022-07-31T09:30:56.341Z,26.09
2022-07-31T09:31:41.064Z,26.16
2022-07-31T09:32:41.068Z,26.10
2022-07-31T09:33:45.487Z,26.26
2022-07-31T09:34:41.075Z,26.28
2022-07-31T09:35:41.626Z,26.31
2022-07-31T09:36:41.074Z,26.41
2022-07-31T09:37:41.075Z,26.51
2022-07-31T09:38:41.091Z,26.48
2022-07-31T09:39:52.259Z,26.51
2022-07-31T09:40:55.204Z,26.59
2022-07-31T09:42:01.477Z,26.52
2022-07-31T09:42:45.556Z,26.53
2022-07-31T09:43:48.433Z,26.53
2022-07-31T09:44:41.088Z,26.52
2022-07-31T09:45:48.084Z,26.44
2022-07-31T09:46:41.096Z,26.47
2022-07-31T09:47:41.094Z,26.41
2022-07-31T09:48:41.097Z,26.51
2022-07-31T09:49:41.271Z,26.59
2022-07-31T09:50:41.098Z,26.60
2022-07-31T09:51:41.098Z,26.65
2022-07-31T09:52:41.099Z,26.68
2022-07-31T09:53:43.518Z,26.68
2022-07-31T09:54:41.103Z,26.73
2022-07-31T09:55:41.105Z,26.81
2022-07-31T09:56:41.105Z,26.90
2022-07-31T09:57:41.106Z,26.84
2022-07-31T09:58:41.114Z,26.96
2022-07-31T09:59:41.112Z,26.99
2022-07-31T10:00:41.187Z,26.95
2022-07-31T10:01:41.116Z,27.00
2022-07-31T10:02:41.116Z,27.03
2022-07-31T10:03:41.128Z,27.08
2022-07-31T10:04:41.120Z,27.15
2022-07-31T10:05:41.121Z,27.08
2022-07-31T10:06:41.123Z,26.85
2022-07-31T10:07:41.122Z,26.68
2022-07-31T10:08:41.124Z,26.63
2022-07-31T10:09:41.135Z,26.77
2022-07-31T10:10:41.131Z,26.65
2022-07-31T10:11:41.132Z,26.60
2022-07-31T10:12:41.130Z,26.60
2022-07-31T10:13:42.367Z,26.66
2022-07-31T10:14:41.138Z,26.66
2022-07-31T10:15:41.136Z,26.73
2022-07-31T10:16:41.140Z,26.65
2022-07-31T10:17:41.142Z,26.62
2022-07-31T10:18:44.303Z,26.60
2022-07-31T10:19:41.145Z,26.59
2022-07-31T10:20:41.146Z,26.51
2022-07-31T10:21:41.148Z,26.40
2022-07-31T10:22:41.149Z,26.31
2022-07-31T10:23:41.151Z,26.43
2022-07-31T10:24:41.150Z,26.38
2022-07-31T10:25:41.154Z,26.33
2022-07-31T10:27:10.936Z,26.19
2022-07-31T10:27:41.155Z,26.33
2022-07-31T10:28:41.158Z,26.31
2022-07-31T10:29:41.158Z,26.36
2022-07-31T10:30:41.159Z,26.40
2022-07-31T10:31:41.165Z,26.38
2022-07-31T10:32:41.168Z,26.38
2022-07-31T10:33:43.927Z,26.29
2022-07-31T10:34:41.170Z,26.28
2022-07-31T10:35:41.175Z,26.34
2022-07-31T10:36:41.178Z,26.18
2022-07-31T10:37:41.169Z,26.13
2022-07-31T10:38:41.299Z,26.16
2022-07-31T10:39:41.173Z,26.34
2022-07-31T10:40:41.174Z,26.36
2022-07-31T10:41:41.175Z,26.58
2022-07-31T10:42:41.178Z,26.53
2022-07-31T10:43:41.178Z,26.51
2022-07-31T10:44:41.179Z,26.52
2022-07-31T10:45:41.181Z,26.60
2022-07-31T10:46:41.186Z,26.62
2022-07-31T10:47:48.023Z,26.44
2022-07-31T10:48:41.183Z,26.33
2022-07-31T10:49:41.226Z,26.43
2022-07-31T10:50:41.187Z,26.34
2022-07-31T10:51:41.188Z,26.40
2022-07-31T10:52:41.219Z,26.47
2022-07-31T10:53:50.869Z,26.40
2022-07-31T10:54:41.191Z,26.31
2022-07-31T10:55:41.196Z,26.40
2022-07-31T10:56:41.196Z,26.47
2022-07-31T10:57:56.572Z,26.60
2022-07-31T10:58:41.196Z,26.58
2022-07-31T10:59:44.585Z,26.73
2022-07-31T11:00:41.198Z,26.70
2022-07-31T11:01:41.265Z,26.85
2022-07-31T11:02:41.264Z,26.77
2022-07-31T11:03:41.208Z,26.81
2022-07-31T11:04:41.204Z,26.68
2022-07-31T11:06:01.981Z,26.70
2022-07-31T11:06:41.210Z,26.78
2022-07-31T11:07:41.209Z,26.95
2022-07-31T11:08:41.214Z,26.92
2022-07-31T11:09:50.348Z,26.90
2022-07-31T11:10:41.215Z,27.07
2022-07-31T11:11:41.215Z,27.03
2022-07-31T11:12:41.216Z,27.12
2022-07-31T11:13:41.219Z,27.08
2022-07-31T11:14:41.220Z,26.85
2022-07-31T11:15:41.220Z,26.83
2022-07-31T11:16:41.220Z,26.74
2022-07-31T11:18:22.528Z,26.74
2022-07-31T11:18:41.228Z,26.81
2022-07-31T11:19:41.573Z,26.81
2022-07-31T11:20:41.229Z,26.96
2022-07-31T11:21:41.232Z,27.08
2022-07-31T11:22:41.233Z,27.20
2022-07-31T11:23:41.236Z,27.26
2022-07-31T11:24:41.236Z,27.29
2022-07-31T11:25:41.236Z,27.39
2022-07-31T11:26:42.310Z,27.42
2022-07-31T11:27:41.240Z,27.48
2022-07-31T11:28:41.242Z,27.49
2022-07-31T11:29:59.265Z,27.55
2022-07-31T11:30:41.246Z,27.60
2022-07-31T11:31:41.247Z,27.63
2022-07-31T11:32:41.250Z,27.71
2022-07-31T11:33:42.727Z,27.87
2022-07-31T11:34:41.250Z,27.92
2022-07-31T11:35:41.254Z,27.73
2022-07-31T11:36:41.260Z,27.51
2022-07-31T11:37:57.021Z,27.49
2022-07-31T11:38:41.261Z,27.65
2022-07-31T11:39:41.265Z,27.58
2022-07-31T11:40:41.265Z,27.49
2022-07-31T11:41:44.591Z,27.44
2022-07-31T11:42:41.269Z,27.32
2022-07-31T11:43:41.270Z,27.22
2022-07-31T11:44:41.269Z,27.21
2022-07-31T11:45:41.273Z,27.21
2022-07-31T11:46:41.273Z,27.15
2022-07-31T11:48:11.565Z,27.18
2022-07-31T11:48:45.401Z,27.29
2022-07-31T11:49:49.149Z,27.25
2022-07-31T11:50:41.283Z,27.29
2022-07-31T11:51:41.292Z,27.33
2022-07-31T11:52:41.288Z,27.32
2022-07-31T11:53:41.288Z,27.29
2022-07-31T11:54:41.287Z,27.29
2022-07-31T11:55:41.296Z,27.29
2022-07-31T11:56:41.293Z,27.40
2022-07-31T11:57:51.662Z,27.51
2022-07-31T11:58:41.298Z,27.63
2022-07-31T11:59:45.808Z,27.77
2022-07-31T12:00:41.302Z,27.86
2022-07-31T12:01:41.304Z,28.07
2022-07-31T12:02:41.348Z,28.19
2022-07-31T12:03:41.310Z,28.32
2022-07-31T12:04:41.310Z,28.37
2022-07-31T12:05:41.314Z,28.42
2022-07-31T12:06:41.316Z,28.63
2022-07-31T12:07:41.320Z,28.47
2022-07-31T12:08:41.319Z,28.37
2022-07-31T12:10:01.177Z,28.33
2022-07-31T12:10:41.326Z,28.17
2022-07-31T12:11:41.328Z,28.05
2022-07-31T12:12:41.331Z,28.04
2022-07-31T12:13:41.331Z,27.93
2022-07-31T12:14:41.335Z,27.82
2022-07-31T12:15:41.336Z,27.54
2022-07-31T12:16:41.339Z,27.39
2022-07-31T12:17:41.340Z,27.44
2022-07-31T12:18:41.343Z,27.26
2022-07-31T12:19:41.347Z,27.14
2022-07-31T12:20:41.346Z,27.05
2022-07-31T12:21:41.349Z,27.05
2022-07-31T12:22:41.354Z,26.90
2022-07-31T12:23:42.026Z,26.93
2022-07-31T12:24:41.357Z,26.92
2022-07-31T12:25:41.358Z,26.84
2022-07-31T12:26:41.358Z,26.80
2022-07-31T12:27:41.361Z,26.75
2022-07-31T12:28:41.359Z,26.75
2022-07-31T12:29:41.364Z,26.89
2022-07-31T12:30:41.365Z,26.92
2022-07-31T12:31:41.378Z,27.03
2022-07-31T12:32:41.370Z,27.26
2022-07-31T12:33:41.371Z,27.45
2022-07-31T12:34:41.376Z,27.49
2022-07-31T12:35:55.051Z,27.64
2022-07-31T12:36:41.377Z,27.75
2022-07-31T12:37:41.383Z,27.98
2022-07-31T12:38:45.518Z,28.14
2022-07-31T12:39:54.334Z,28.38
2022-07-31T12:40:41.386Z,28.51
2022-07-31T12:41:41.390Z,28.59
2022-07-31T12:42:42.184Z,28.74
2022-07-31T12:43:50.252Z,28.76
2022-07-31T12:44:41.399Z,28.75
2022-07-31T12:45:41.400Z,28.76
2022-07-31T12:46:41.417Z,28.70
2022-07-31T12:47:41.405Z,28.88
2022-07-31T12:48:45.957Z,28.96
2022-07-31T12:49:41.580Z,29.08
2022-07-31T12:50:41.413Z,29.10
2022-07-31T12:51:44.901Z,29.24
2022-07-31T12:52:41.420Z,29.22